sensor_id;sensor_type;location;lat;lon;timestamp;pressure;altitude;pressure_sealevel;temperature;humidity
43488;BME280;29078;41.932;25.554;2023-04-06T00:00:49;99287.38;;;7.39;46.27
43488;BME280;29078;41.932;25.554;2023-04-06T00:03:15;99278.84;;;7.29;46.33
43488;BME280;29078;41.932;25.554;2023-04-06T00:05:41;99292.00;;;7.53;46.28
43488;BME280;29078;41.932;25.554;2023-04-06T00:08:06;99296.13;;;7.56;46.78
43488;BME280;29078;41.932;25.554;2023-04-06T00:10:32;99201.22;;;6.94;46.55
43488;BME280;29078;41.932;25.554;2023-04-06T00:12:58;99218.28;;;7.06;46.25
43488;BME280;29078;41.932;25.554;2023-04-06T00:15:24;99296.78;;;7.50;46.64
43488;BME280;29078;41.932;25.554;2023-04-06T00:17:49;99262.28;;;7.28;46.28
43488;BME280;29078;41.932;25.554;2023-04-06T00:20:15;99249.13;;;7.20;46.93
43488;BME280;29078;41.932;25.554;2023-04-06T00:22:41;99247.81;;;7.24;46.29
43488;BME280;29078;41.932;25.554;2023-04-06T00:25:07;99193.50;;;6.92;46.65
43488;BME280;29078;41.932;25.554;2023-04-06T00:27:32;99280.34;;;7.56;46.74
43488;BME280;29078;41.932;25.554;2023-04-06T00:29:57;99195.16;;;7.01;46.26
43488;BME280;29078;41.932;25.554;2023-04-06T00:32:23;99201.38;;;7.17;46.84
43488;BME280;29078;41.932;25.554;2023-04-06T00:34:48;99253.72;;;7.43;46.19
43488;BME280;29078;41.932;25.554;2023-04-06T00:37:14;99203.19;;;7.08;46.55
43488;BME280;29078;41.932;25.554;2023-04-06T00:39:39;99206.63;;;7.00;46.37
43488;BME280;29078;41.932;25.554;2023-04-06T00:42:11;99247.66;;;7.26;46.58
43488;BME280;29078;41.932;25.554;2023-04-06T00:44:40;99260.31;;;7.22;47.13
43488;BME280;29078;41.932;25.554;2023-04-06T00:47:06;99179.34;;;6.61;47.06
43488;BME280;29078;41.932;25.554;2023-04-06T00:49:33;99254.88;;;7.08;46.78
43488;BME280;29078;41.932;25.554;2023-04-06T00:51:59;99215.81;;;6.88;47.15
43488;BME280;29078;41.932;25.554;2023-04-06T00:54:24;99173.16;;;6.70;46.82
43488;BME280;29078;41.932;25.554;2023-04-06T00:56:50;99251.44;;;7.23;46.83
43488;BME280;29078;41.932;25.554;2023-04-06T00:59:15;99156.88;;;6.58;46.91
43488;BME280;29078;41.932;25.554;2023-04-06T01:01:41;99202.69;;;6.88;46.81
43488;BME280;29078;41.932;25.554;2023-04-06T01:04:06;99211.38;;;6.89;46.96
43488;BME280;29078;41.932;25.554;2023-04-06T01:06:32;99249.63;;;7.08;46.84
43488;BME280;29078;41.932;25.554;2023-04-06T01:08:57;99187.09;;;6.71;47.01
43488;BME280;29078;41.932;25.554;2023-04-06T01:11:22;99254.22;;;7.14;47.18
43488;BME280;29078;41.932;25.554;2023-04-06T01:13:48;99249.31;;;7.19;46.93
43488;BME280;29078;41.932;25.554;2023-04-06T01:16:14;99245.69;;;7.20;47.29
43488;BME280;29078;41.932;25.554;2023-04-06T01:18:39;99173.41;;;6.43;46.89
43488;BME280;29078;41.932;25.554;2023-04-06T01:21:05;99198.38;;;6.63;46.84
43488;BME280;29078;41.932;25.554;2023-04-06T01:23:31;99222.69;;;6.73;46.67
43488;BME280;29078;41.932;25.554;2023-04-06T01:25:56;99188.84;;;6.62;46.97
43488;BME280;29078;41.932;25.554;2023-04-06T01:28:21;99203.13;;;6.67;46.85
43488;BME280;29078;41.932;25.554;2023-04-06T01:30:47;99235.66;;;6.91;46.63
43488;BME280;29078;41.932;25.554;2023-04-06T01:33:12;99184.97;;;6.74;46.68
43488;BME280;29078;41.932;25.554;2023-04-06T01:35:38;99217.78;;;6.94;46.56
43488;BME280;29078;41.932;25.554;2023-04-06T01:38:03;99200.06;;;6.88;46.44
43488;BME280;29078;41.932;25.554;2023-04-06T01:40:28;99233.06;;;7.15;46.50
43488;BME280;29078;41.932;25.554;2023-04-06T01:42:54;99155.09;;;6.67;45.96
43488;BME280;29078;41.932;25.554;2023-04-06T01:45:20;99139.00;;;6.46;45.78
43488;BME280;29078;41.932;25.554;2023-04-06T01:47:46;99238.13;;;7.17;46.04
43488;BME280;29078;41.932;25.554;2023-04-06T01:50:11;99228.28;;;7.19;46.39
43488;BME280;29078;41.932;25.554;2023-04-06T01:52:37;99106.03;;;6.43;46.55
43488;BME280;29078;41.932;25.554;2023-04-06T01:55:03;99117.53;;;6.50;45.67
43488;BME280;29078;41.932;25.554;2023-04-06T01:57:28;99141.50;;;6.72;45.94
43488;BME280;29078;41.932;25.554;2023-04-06T01:59:53;99148.25;;;6.74;45.98
43488;BME280;29078;41.932;25.554;2023-04-06T02:02:19;99167.25;;;6.92;46.31
43488;BME280;29078;41.932;25.554;2023-04-06T02:04:45;99184.00;;;7.08;46.14
43488;BME280;29078;41.932;25.554;2023-04-06T02:07:10;99202.03;;;7.19;45.80
43488;BME280;29078;41.932;25.554;2023-04-06T02:09:36;99212.88;;;7.24;46.27
43488;BME280;29078;41.932;25.554;2023-04-06T02:12:01;99229.28;;;7.26;46.00
43488;BME280;29078;41.932;25.554;2023-04-06T02:14:27;99213.03;;;7.14;45.42
43488;BME280;29078;41.932;25.554;2023-04-06T02:16:53;99215.16;;;7.11;45.68
43488;BME280;29078;41.932;25.554;2023-04-06T02:19:18;99182.34;;;6.82;46.06
43488;BME280;29078;41.932;25.554;2023-04-06T02:21:43;99225.66;;;7.03;45.87
43488;BME280;29078;41.932;25.554;2023-04-06T02:24:09;99157.38;;;6.62;45.85
43488;BME280;29078;41.932;25.554;2023-04-06T02:26:35;99115.22;;;6.31;46.00
43488;BME280;29078;41.932;25.554;2023-04-06T02:29:00;99215.66;;;6.90;46.11
43488;BME280;29078;41.932;25.554;2023-04-06T02:31:27;99066.31;;;5.97;45.67
43488;BME280;29078;41.932;25.554;2023-04-06T02:33:52;99160.13;;;6.36;46.37
43488;BME280;29078;41.932;25.554;2023-04-06T02:36:18;99212.03;;;6.75;46.30
43488;BME280;29078;41.932;25.554;2023-04-06T02:38:43;99214.66;;;6.91;45.51
43488;BME280;29078;41.932;25.554;2023-04-06T02:41:09;99125.88;;;6.37;45.50
43488;BME280;29078;41.932;25.554;2023-04-06T02:43:34;99193.66;;;6.75;45.67
43488;BME280;29078;41.932;25.554;2023-04-06T02:46:00;99202.66;;;6.72;45.75
43488;BME280;29078;41.932;25.554;2023-04-06T02:48:25;99165.06;;;6.55;45.59
43488;BME280;29078;41.932;25.554;2023-04-06T02:50:51;99105.38;;;6.33;45.29
43488;BME280;29078;41.932;25.554;2023-04-06T02:53:16;99144.44;;;6.60;45.43
43488;BME280;29078;41.932;25.554;2023-04-06T02:55:42;99217.47;;;6.97;45.72
43488;BME280;29078;41.932;25.554;2023-04-06T02:58:07;99192.50;;;6.77;45.19
43488;BME280;29078;41.932;25.554;2023-04-06T03:00:32;99139.16;;;6.44;45.67
43488;BME280;29078;41.932;25.554;2023-04-06T03:02:58;99196.78;;;6.78;45.67
43488;BME280;29078;41.932;25.554;2023-04-06T03:05:23;99135.53;;;6.37;45.48
43488;BME280;29078;41.932;25.554;2023-04-06T03:07:48;99164.91;;;6.49;45.49
43488;BME280;29078;41.932;25.554;2023-04-06T03:10:14;99205.78;;;6.76;45.48
43488;BME280;29078;41.932;25.554;2023-04-06T03:12:39;99145.38;;;6.43;45.45
43488;BME280;29078;41.932;25.554;2023-04-06T03:15:07;99197.06;;;6.67;45.71
43488;BME280;29078;41.932;25.554;2023-04-06T03:17:33;99136.69;;;6.34;45.45
43488;BME280;29078;41.932;25.554;2023-04-06T03:19:58;99049.34;;;5.75;45.49
43488;BME280;29078;41.932;25.554;2023-04-06T03:22:23;99113.69;;;6.12;45.37
43488;BME280;29078;41.932;25.554;2023-04-06T03:24:49;99133.72;;;6.29;45.73
43488;BME280;29078;41.932;25.554;2023-04-06T03:27:14;99195.59;;;6.64;45.85
43488;BME280;29078;41.932;25.554;2023-04-06T03:29:40;99116.97;;;6.14;45.87
43488;BME280;29078;41.932;25.554;2023-04-06T03:32:05;99132.22;;;6.19;45.71
43488;BME280;29078;41.932;25.554;2023-04-06T03:34:31;99157.13;;;6.23;45.81
43488;BME280;29078;41.932;25.554;2023-04-06T03:36:56;99224.91;;;6.60;46.09
43488;BME280;29078;41.932;25.554;2023-04-06T03:39:22;99139.09;;;6.12;45.78
43488;BME280;29078;41.932;25.554;2023-04-06T03:41:47;99192.56;;;6.35;46.00
43488;BME280;29078;41.932;25.554;2023-04-06T03:44:12;99146.78;;;6.13;46.17
43488;BME280;29078;41.932;25.554;2023-04-06T03:46:38;99174.38;;;6.42;46.47
43488;BME280;29078;41.932;25.554;2023-04-06T03:49:03;99103.25;;;5.86;46.65
43488;BME280;29078;41.932;25.554;2023-04-06T03:51:29;99141.03;;;6.01;46.39
43488;BME280;29078;41.932;25.554;2023-04-06T03:53:54;99167.81;;;6.29;46.30
43488;BME280;29078;41.932;25.554;2023-04-06T03:56:19;99171.44;;;6.36;46.39
43488;BME280;29078;41.932;25.554;2023-04-06T03:58:45;99210.31;;;6.57;46.18
43488;BME280;29078;41.932;25.554;2023-04-06T04:01:14;99209.50;;;6.57;46.48
43488;BME280;29078;41.932;25.554;2023-04-06T04:03:40;99116.63;;;6.01;46.67
43488;BME280;29078;41.932;25.554;2023-04-06T04:06:05;99147.13;;;6.18;46.28
43488;BME280;29078;41.932;25.554;2023-04-06T04:08:31;99123.81;;;5.99;46.20
43488;BME280;29078;41.932;25.554;2023-04-06T04:10:56;99190.44;;;6.38;46.70
43488;BME280;29078;41.932;25.554;2023-04-06T04:13:21;99118.50;;;5.91;46.62
43488;BME280;29078;41.932;25.554;2023-04-06T04:15:47;99133.31;;;6.00;46.62
43488;BME280;29078;41.932;25.554;2023-04-06T04:18:13;99222.13;;;6.61;46.63
43488;BME280;29078;41.932;25.554;2023-04-06T04:20:38;99187.81;;;6.30;46.07
43488;BME280;29078;41.932;25.554;2023-04-06T04:23:04;99190.28;;;6.40;46.69
43488;BME280;29078;41.932;25.554;2023-04-06T04:25:29;99176.63;;;6.20;46.44
43488;BME280;29078;41.932;25.554;2023-04-06T04:27:55;99204.53;;;6.37;46.69
43488;BME280;29078;41.932;25.554;2023-04-06T04:30:20;99154.13;;;6.01;46.48
43488;BME280;29078;41.932;25.554;2023-04-06T04:32:46;99207.25;;;6.20;47.12
43488;BME280;29078;41.932;25.554;2023-04-06T04:35:12;99172.19;;;6.13;46.40
43488;BME280;29078;41.932;25.554;2023-04-06T04:37:38;99200.63;;;6.42;47.19
43488;BME280;29078;41.932;25.554;2023-04-06T04:40:05;99157.13;;;6.15;46.86
43488;BME280;29078;41.932;25.554;2023-04-06T04:42:30;99216.06;;;6.61;46.86
43488;BME280;29078;41.932;25.554;2023-04-06T04:44:56;99216.06;;;6.53;46.72
43488;BME280;29078;41.932;25.554;2023-04-06T04:47:21;99144.81;;;6.15;46.65
43488;BME280;29078;41.932;25.554;2023-04-06T04:49:47;99192.13;;;6.56;47.04
43488;BME280;29078;41.932;25.554;2023-04-06T04:52:12;99167.19;;;6.44;46.48
43488;BME280;29078;41.932;25.554;2023-04-06T04:54:37;99201.00;;;6.63;46.52
43488;BME280;29078;41.932;25.554;2023-04-06T04:57:03;99235.81;;;6.81;46.62
43488;BME280;29078;41.932;25.554;2023-04-06T04:59:29;99224.47;;;6.73;46.91
43488;BME280;29078;41.932;25.554;2023-04-06T05:01:54;99167.13;;;6.19;46.78
43488;BME280;29078;41.932;25.554;2023-04-06T05:04:20;99222.94;;;6.54;47.20
43488;BME280;29078;41.932;25.554;2023-04-06T05:06:46;99199.84;;;6.57;46.54
43488;BME280;29078;41.932;25.554;2023-04-06T05:09:11;99225.16;;;6.75;46.58
43488;BME280;29078;41.932;25.554;2023-04-06T05:11:36;99225.47;;;6.80;47.10
43488;BME280;29078;41.932;25.554;2023-04-06T05:14:02;99160.63;;;6.40;47.05
43488;BME280;29078;41.932;25.554;2023-04-06T05:16:27;99179.81;;;6.56;46.97
43488;BME280;29078;41.932;25.554;2023-04-06T05:18:53;99200.88;;;6.73;46.96
43488;BME280;29078;41.932;25.554;2023-04-06T05:21:18;99204.66;;;6.86;46.39
43488;BME280;29078;41.932;25.554;2023-04-06T05:23:44;99181.88;;;6.87;46.25
43488;BME280;29078;41.932;25.554;2023-04-06T05:26:09;99135.13;;;6.74;46.31
43488;BME280;29078;41.932;25.554;2023-04-06T05:28:35;99098.69;;;6.63;46.72
43488;BME280;29078;41.932;25.554;2023-04-06T05:31:01;99178.75;;;7.16;46.12
43488;BME280;29078;41.932;25.554;2023-04-06T05:33:26;99174.13;;;7.26;46.05
43488;BME280;29078;41.932;25.554;2023-04-06T05:35:52;99170.53;;;7.11;46.34
43488;BME280;29078;41.932;25.554;2023-04-06T05:38:17;99218.13;;;7.48;46.23
43488;BME280;29078;41.932;25.554;2023-04-06T05:40:43;99153.31;;;7.16;45.91
43488;BME280;29078;41.932;25.554;2023-04-06T05:43:09;99117.25;;;6.94;45.81
43488;BME280;29078;41.932;25.554;2023-04-06T05:45:34;99184.31;;;7.29;46.20
43488;BME280;29078;41.932;25.554;2023-04-06T05:48:01;99180.53;;;7.40;46.30
43488;BME280;29078;41.932;25.554;2023-04-06T05:50:26;99215.97;;;7.60;46.39
43488;BME280;29078;41.932;25.554;2023-04-06T05:52:52;99218.44;;;7.70;45.66
43488;BME280;29078;41.932;25.554;2023-04-06T05:55:17;99219.75;;;7.65;45.94
43488;BME280;29078;41.932;25.554;2023-04-06T05:57:42;99150.84;;;7.15;46.29
43488;BME280;29078;41.932;25.554;2023-04-06T06:00:08;99180.84;;;7.37;46.16
43488;BME280;29078;41.932;25.554;2023-04-06T06:02:35;99141.50;;;7.20;45.97
43488;BME280;29078;41.932;25.554;2023-04-06T06:05:00;99118.19;;;7.17;46.29
43488;BME280;29078;41.932;25.554;2023-04-06T06:07:26;99161.66;;;7.36;45.90
43488;BME280;29078;41.932;25.554;2023-04-06T06:09:51;99190.03;;;7.65;46.09
43488;BME280;29078;41.932;25.554;2023-04-06T06:12:16;99222.19;;;7.75;46.03
43488;BME280;29078;41.932;25.554;2023-04-06T06:14:42;99110.50;;;7.08;45.87
43488;BME280;29078;41.932;25.554;2023-04-06T06:17:08;99200.06;;;7.61;46.60
43488;BME280;29078;41.932;25.554;2023-04-06T06:19:33;99161.97;;;7.33;46.43
43488;BME280;29078;41.932;25.554;2023-04-06T06:21:59;99155.91;;;7.32;46.32
43488;BME280;29078;41.932;25.554;2023-04-06T06:24:26;99160.38;;;7.08;46.59
43488;BME280;29078;41.932;25.554;2023-04-06T06:26:53;99200.09;;;7.45;46.61
43488;BME280;29078;41.932;25.554;2023-04-06T06:29:18;99141.50;;;7.04;46.48
43488;BME280;29078;41.932;25.554;2023-04-06T06:31:43;99167.25;;;7.00;46.38
43488;BME280;29078;41.932;25.554;2023-04-06T06:34:09;99192.34;;;7.27;46.12
43488;BME280;29078;41.932;25.554;2023-04-06T06:36:35;99213.84;;;7.39;46.78
43488;BME280;29078;41.932;25.554;2023-04-06T06:39:01;99217.81;;;7.51;46.56
43488;BME280;29078;41.932;25.554;2023-04-06T06:41:28;99155.28;;;7.22;46.61
43488;BME280;29078;41.932;25.554;2023-04-06T06:43:53;99158.88;;;7.29;46.13
43488;BME280;29078;41.932;25.554;2023-04-06T06:46:20;99209.34;;;7.88;46.49
43488;BME280;29078;41.932;25.554;2023-04-06T06:48:45;99214.44;;;7.90;45.85
43488;BME280;29078;41.932;25.554;2023-04-06T06:51:11;99154.41;;;7.54;45.66
43488;BME280;29078;41.932;25.554;2023-04-06T06:53:37;99206.31;;;8.08;45.43
43488;BME280;29078;41.932;25.554;2023-04-06T06:56:03;99128.25;;;7.69;45.15
43488;BME280;29078;41.932;25.554;2023-04-06T06:58:28;99197.56;;;8.15;44.98
43488;BME280;29078;41.932;25.554;2023-04-06T07:00:57;99203.47;;;8.25;44.89
43488;BME280;29078;41.932;25.554;2023-04-06T07:03:23;99162.13;;;8.03;44.95
43488;BME280;29078;41.932;25.554;2023-04-06T07:05:49;99228.19;;;8.55;44.40
43488;BME280;29078;41.932;25.554;2023-04-06T07:08:21;99203.44;;;8.42;44.39
43488;BME280;29078;41.932;25.554;2023-04-06T07:10:48;99167.19;;;8.21;44.62
43488;BME280;29078;41.932;25.554;2023-04-06T07:13:14;99187.47;;;8.43;44.34
43488;BME280;29078;41.932;25.554;2023-04-06T07:15:45;99220.25;;;8.64;44.44
43488;BME280;29078;41.932;25.554;2023-04-06T07:18:11;99198.41;;;8.55;43.77
43488;BME280;29078;41.932;25.554;2023-04-06T07:20:36;99219.78;;;8.60;43.66
43488;BME280;29078;41.932;25.554;2023-04-06T07:23:02;99228.56;;;8.75;43.72
43488;BME280;29078;41.932;25.554;2023-04-06T07:25:27;99177.53;;;8.53;43.69
43488;BME280;29078;41.932;25.554;2023-04-06T07:27:53;99144.38;;;8.44;43.54
43488;BME280;29078;41.932;25.554;2023-04-06T07:30:19;99229.91;;;9.02;43.45
43488;BME280;29078;41.932;25.554;2023-04-06T07:32:44;99232.00;;;9.07;43.66
43488;BME280;29078;41.932;25.554;2023-04-06T07:35:10;99134.81;;;8.51;43.10
43488;BME280;29078;41.932;25.554;2023-04-06T07:37:35;99174.03;;;8.92;43.36
43488;BME280;29078;41.932;25.554;2023-04-06T07:40:01;99219.06;;;9.20;42.97
43488;BME280;29078;41.932;25.554;2023-04-06T07:42:26;99197.53;;;9.16;43.07
43488;BME280;29078;41.932;25.554;2023-04-06T07:44:52;99163.41;;;8.77;43.05
43488;BME280;29078;41.932;25.554;2023-04-06T07:47:17;99164.44;;;8.91;42.93
43488;BME280;29078;41.932;25.554;2023-04-06T07:49:43;99193.19;;;9.23;42.81
43488;BME280;29078;41.932;25.554;2023-04-06T07:52:08;99090.66;;;8.62;42.42
43488;BME280;29078;41.932;25.554;2023-04-06T07:54:33;99134.63;;;8.99;42.96
43488;BME280;29078;41.932;25.554;2023-04-06T07:57:02;99217.59;;;9.55;42.50
43488;BME280;29078;41.932;25.554;2023-04-06T07:59:27;99183.13;;;9.42;42.60
43488;BME280;29078;41.932;25.554;2023-04-06T08:01:53;99185.88;;;9.48;42.51
43488;BME280;29078;41.932;25.554;2023-04-06T08:04:18;99202.81;;;9.69;42.59
43488;BME280;29078;41.932;25.554;2023-04-06T08:06:43;99203.09;;;9.88;42.61
43488;BME280;29078;41.932;25.554;2023-04-06T08:09:09;99140.97;;;9.56;41.96
43488;BME280;29078;41.932;25.554;2023-04-06T08:11:34;99062.47;;;9.08;41.25
43488;BME280;29078;41.932;25.554;2023-04-06T08:14:00;99121.16;;;9.46;41.58
43488;BME280;29078;41.932;25.554;2023-04-06T08:16:25;99194.00;;;10.06;41.48
43488;BME280;29078;41.932;25.554;2023-04-06T08:18:51;99138.66;;;9.76;41.75
43488;BME280;29078;41.932;25.554;2023-04-06T08:21:16;99195.09;;;10.26;41.45
43488;BME280;29078;41.932;25.554;2023-04-06T08:23:42;99092.00;;;9.77;41.06
43488;BME280;29078;41.932;25.554;2023-04-06T08:26:07;99183.25;;;10.52;41.07
43488;BME280;29078;41.932;25.554;2023-04-06T08:28:33;99161.75;;;10.55;41.06
43488;BME280;29078;41.932;25.554;2023-04-06T08:31:03;99174.28;;;10.89;40.74
43488;BME280;29078;41.932;25.554;2023-04-06T08:33:29;99138.50;;;10.86;40.61
43488;BME280;29078;41.932;25.554;2023-04-06T08:35:54;99174.97;;;11.19;40.17
43488;BME280;29078;41.932;25.554;2023-04-06T08:38:20;99053.72;;;10.53;40.20
43488;BME280;29078;41.932;25.554;2023-04-06T08:40:45;99173.94;;;11.41;40.38
43488;BME280;29078;41.932;25.554;2023-04-06T08:43:13;99121.03;;;11.13;39.78
43488;BME280;29078;41.932;25.554;2023-04-06T08:45:41;99133.25;;;11.14;40.07
43488;BME280;29078;41.932;25.554;2023-04-06T08:48:08;99171.69;;;11.72;39.73
43488;BME280;29078;41.932;25.554;2023-04-06T08:50:34;99093.53;;;11.29;39.51
43488;BME280;29078;41.932;25.554;2023-04-06T08:53:00;99179.84;;;11.99;39.24
43488;BME280;29078;41.932;25.554;2023-04-06T08:55:26;99073.28;;;11.42;39.60
43488;BME280;29078;41.932;25.554;2023-04-06T08:57:52;99166.25;;;12.08;39.13
43488;BME280;29078;41.932;25.554;2023-04-06T09:00:21;99125.75;;;12.15;38.52
43488;BME280;29078;41.932;25.554;2023-04-06T09:02:49;99092.13;;;12.02;38.47
43488;BME280;29078;41.932;25.554;2023-04-06T09:05:15;99166.69;;;12.80;38.61
43488;BME280;29078;41.932;25.554;2023-04-06T09:07:40;99140.19;;;12.66;38.15
43488;BME280;29078;41.932;25.554;2023-04-06T09:10:06;99012.34;;;11.98;37.69
43488;BME280;29078;41.932;25.554;2023-04-06T09:12:33;99157.53;;;13.02;37.98
43488;BME280;29078;41.932;25.554;2023-04-06T09:14:59;99071.28;;;12.53;37.68
43488;BME280;29078;41.932;25.554;2023-04-06T09:17:27;99129.66;;;13.19;37.53
43488;BME280;29078;41.932;25.554;2023-04-06T09:19:53;99163.50;;;13.57;37.13
43488;BME280;29078;41.932;25.554;2023-04-06T09:22:19;99155.09;;;13.73;36.96
43488;BME280;29078;41.932;25.554;2023-04-06T09:24:51;99100.47;;;13.32;36.46
43488;BME280;29078;41.932;25.554;2023-04-06T09:27:17;99081.28;;;13.37;36.71
43488;BME280;29078;41.932;25.554;2023-04-06T09:29:43;99133.19;;;13.97;36.22
43488;BME280;29078;41.932;25.554;2023-04-06T09:32:10;99138.22;;;14.19;35.97
43488;BME280;29078;41.932;25.554;2023-04-06T09:34:38;99106.16;;;14.20;36.18
43488;BME280;29078;41.932;25.554;2023-04-06T09:37:17;99127.03;;;14.55;34.25
43488;BME280;29078;41.932;25.554;2023-04-06T09:39:43;99071.16;;;14.30;35.25
43488;BME280;29078;41.932;25.554;2023-04-06T09:42:09;99082.59;;;14.30;34.88
43488;BME280;29078;41.932;25.554;2023-04-06T09:44:34;99128.66;;;14.56;35.20
43488;BME280;29078;41.932;25.554;2023-04-06T09:47:00;99071.13;;;13.92;35.37
43488;BME280;29078;41.932;25.554;2023-04-06T09:49:31;99115.34;;;14.11;35.35
43488;BME280;29078;41.932;25.554;2023-04-06T09:52:00;99118.91;;;13.92;35.73
43488;BME280;29078;41.932;25.554;2023-04-06T09:54:29;99031.22;;;13.74;35.47
43488;BME280;29078;41.932;25.554;2023-04-06T09:56:56;99114.47;;;14.69;35.12
43488;BME280;29078;41.932;25.554;2023-04-06T10:02:30;99088.28;;;14.72;34.31
43488;BME280;29078;41.932;25.554;2023-04-06T10:05:05;99072.19;;;14.67;34.79
43488;BME280;29078;41.932;25.554;2023-04-06T10:07:33;99113.28;;;14.96;34.64
43488;BME280;29078;41.932;25.554;2023-04-06T10:09:59;99123.44;;;14.74;34.74
43488;BME280;29078;41.932;25.554;2023-04-06T10:12:26;99107.28;;;14.44;34.93
43488;BME280;29078;41.932;25.554;2023-04-06T10:14:52;99112.59;;;14.38;35.04
43488;BME280;29078;41.932;25.554;2023-04-06T10:17:18;99070.84;;;14.07;34.99
43488;BME280;29078;41.932;25.554;2023-04-06T10:19:54;99033.81;;;13.87;35.34
43488;BME280;29078;41.932;25.554;2023-04-06T10:22:34;99075.19;;;14.01;35.55
43488;BME280;29078;41.932;25.554;2023-04-06T10:25:02;99069.03;;;14.07;34.99
43488;BME280;29078;41.932;25.554;2023-04-06T10:27:29;99100.59;;;14.28;35.26
43488;BME280;29078;41.932;25.554;2023-04-06T10:30:02;99040.66;;;14.01;34.71
43488;BME280;29078;41.932;25.554;2023-04-06T10:32:38;99054.13;;;14.06;34.58
43488;BME280;29078;41.932;25.554;2023-04-06T10:35:10;99099.31;;;14.44;33.97
43488;BME280;29078;41.932;25.554;2023-04-06T10:37:46;99067.06;;;14.34;34.15
43488;BME280;29078;41.932;25.554;2023-04-06T10:40:23;99064.59;;;14.71;34.39
43488;BME280;29078;41.932;25.554;2023-04-06T10:42:51;99084.91;;;15.15;34.29
43488;BME280;29078;41.932;25.554;2023-04-06T10:45:26;99034.66;;;14.82;34.13
43488;BME280;29078;41.932;25.554;2023-04-06T10:47:56;99037.31;;;15.07;34.02
43488;BME280;29078;41.932;25.554;2023-04-06T10:50:22;99086.69;;;15.64;33.80
43488;BME280;29078;41.932;25.554;2023-04-06T10:52:59;98883.94;;;14.21;32.99
43488;BME280;29078;41.932;25.554;2023-04-06T10:55:26;99012.78;;;15.05;33.49
43488;BME280;29078;41.932;25.554;2023-04-06T10:57:51;99040.09;;;14.93;33.84
43488;BME280;29078;41.932;25.554;2023-04-06T11:00:17;99029.28;;;15.13;33.57
43488;BME280;29078;41.932;25.554;2023-04-06T11:02:44;99017.50;;;15.03;33.53
43488;BME280;29078;41.932;25.554;2023-04-06T11:05:11;99030.81;;;15.03;33.44
43488;BME280;29078;41.932;25.554;2023-04-06T11:07:39;99070.56;;;15.16;33.31
43488;BME280;29078;41.932;25.554;2023-04-06T11:10:06;99023.53;;;14.67;33.46
43488;BME280;29078;41.932;25.554;2023-04-06T11:12:31;99022.94;;;14.33;33.31
43488;BME280;29078;41.932;25.554;2023-04-06T11:14:59;99060.66;;;14.48;33.96
43488;BME280;29078;41.932;25.554;2023-04-06T11:17:34;99059.19;;;14.52;34.18
43488;BME280;29078;41.932;25.554;2023-04-06T11:20:00;99027.94;;;14.54;34.26
43488;BME280;29078;41.932;25.554;2023-04-06T11:22:26;99051.66;;;15.24;33.43
43488;BME280;29078;41.932;25.554;2023-04-06T11:24:52;98979.63;;;15.44;32.98
43488;BME280;29078;41.932;25.554;2023-04-06T11:27:18;99048.00;;;16.28;32.56
43488;BME280;29078;41.932;25.554;2023-04-06T11:29:45;99029.41;;;16.40;31.66
43488;BME280;29078;41.932;25.554;2023-04-06T11:32:20;99036.00;;;16.37;31.30
43488;BME280;29078;41.932;25.554;2023-04-06T11:34:47;99035.66;;;16.87;31.00
43488;BME280;29078;41.932;25.554;2023-04-06T11:37:12;98976.63;;;16.95;30.87
43488;BME280;29078;41.932;25.554;2023-04-06T11:39:49;99029.84;;;17.48;30.42
43488;BME280;29078;41.932;25.554;2023-04-06T11:42:29;98990.66;;;17.02;30.37
43488;BME280;29078;41.932;25.554;2023-04-06T11:44:58;98880.72;;;15.95;31.10
43488;BME280;29078;41.932;25.554;2023-04-06T11:47:36;99032.09;;;16.51;31.64
43488;BME280;29078;41.932;25.554;2023-04-06T11:50:13;99028.59;;;16.39;32.03
43488;BME280;29078;41.932;25.554;2023-04-06T11:52:42;99034.53;;;16.23;32.26
43488;BME280;29078;41.932;25.554;2023-04-06T11:55:26;98971.50;;;15.75;32.25
43488;BME280;29078;41.932;25.554;2023-04-06T11:57:51;99045.03;;;16.06;32.67
43488;BME280;29078;41.932;25.554;2023-04-06T12:00:17;98954.78;;;15.50;32.96
43488;BME280;29078;41.932;25.554;2023-04-06T12:02:47;99005.44;;;15.80;32.94
43488;BME280;29078;41.932;25.554;2023-04-06T12:05:13;99032.19;;;15.85;33.10
43488;BME280;29078;41.932;25.554;2023-04-06T12:07:39;98956.94;;;15.41;32.50
43488;BME280;29078;41.932;25.554;2023-04-06T12:10:05;98959.03;;;15.21;32.72
43488;BME280;29078;41.932;25.554;2023-04-06T12:12:30;99006.00;;;15.45;32.98
43488;BME280;29078;41.932;25.554;2023-04-06T12:14:56;99022.25;;;15.55;32.90
43488;BME280;29078;41.932;25.554;2023-04-06T12:17:22;99016.47;;;15.65;33.07
43488;BME280;29078;41.932;25.554;2023-04-06T12:19:48;98998.53;;;15.54;33.35
43488;BME280;29078;41.932;25.554;2023-04-06T12:22:14;98962.19;;;15.30;33.53
43488;BME280;29078;41.932;25.554;2023-04-06T12:24:40;98985.53;;;15.46;33.03
43488;BME280;29078;41.932;25.554;2023-04-06T12:27:06;98946.53;;;15.21;33.53
43488;BME280;29078;41.932;25.554;2023-04-06T12:29:32;98985.31;;;15.47;33.34
43488;BME280;29078;41.932;25.554;2023-04-06T12:31:57;99002.22;;;15.53;33.39
43488;BME280;29078;41.932;25.554;2023-04-06T12:34:22;98962.25;;;15.41;33.39
43488;BME280;29078;41.932;25.554;2023-04-06T12:36:48;98973.41;;;15.50;33.54
43488;BME280;29078;41.932;25.554;2023-04-06T12:39:13;98850.78;;;14.91;33.13
43488;BME280;29078;41.932;25.554;2023-04-06T12:41:39;98916.53;;;15.33;33.15
43488;BME280;29078;41.932;25.554;2023-04-06T12:44:07;98932.63;;;15.74;33.13
43488;BME280;29078;41.932;25.554;2023-04-06T12:46:33;98972.09;;;16.19;33.07
43488;BME280;29078;41.932;25.554;2023-04-06T12:48:58;98932.63;;;16.16;32.76
43488;BME280;29078;41.932;25.554;2023-04-06T12:51:27;98904.22;;;15.98;32.52
43488;BME280;29078;41.932;25.554;2023-04-06T12:53:53;98956.59;;;16.28;32.44
43488;BME280;29078;41.932;25.554;2023-04-06T12:56:19;98967.72;;;16.25;32.38